モントリオール/トルドー の空港の天気 - METARとTAF

モントリオール・ピエール・エリオット・トルドー国際空港 ( CYUL / YUL ) - カナダ ケベック州モントリオール
飛行場実況気象(Metar)
観測時間08/22 12:00 EDT (08/22 16:00 UTC)
風向・風速西 6m/s 瞬間風速8m/s
視程10km以上
天気現象
全天の4割程度の雲 雲底高度 980m
全天の8割程度の雲 雲底高度 1770m
全天の8割程度の雲 雲底高度 5490m
全天の8割程度の雲 雲底高度 7620m
気温24℃
湿度65%
気圧1008.6hPa
METARCYUL 221600Z 27011G16KT 30SM SCT032 BKN058 BKN180 BKN250 24/17 A2978 RMK CF3SC2AC1CI1 SLP086 DENSITY ALT 1400FT
過去の天気等 Google飛行場航空写真 Wunderground天気予報

過去48時間のMETAR

飛行場予報(TAF)
発表時間: 8/22 10:38 EDT (8/22 14:38 UTC)
予報対象時間: 22日11時 EDT ~ 23日8時 EDT
風向・風速西 5m/s 瞬間風速 10m/s
視程10km以上
全天の4割程度の雲 雲底高度 1830m
22日20時 EDT から
風向・風速西北西 4m/s
視程10km以上
全天の8割程度の雲 雲底高度 2130m
23日5時 EDT から
風向・風速西北西 4m/s
視程10km以上
少しの雲 雲底高度 610m
全天の4割程度の雲 雲底高度 1830m
TAF CYUL 221438Z 2215/2312 26010G20KT P6SM SCT060
FM230000 29008KT P6SM BKN070
FM230900 29008KT P6SM FEW020 SCT060 RMK NXT FCST BY 221800Z